Aérodrome :
LOGIN :

S'inscrire | Disclaimer

   EN    FR    IT 

 










Légende :    VFR   VFR Marginal   IFR   IFR Intensif   IFR Très Intensif
Visi : 
Plafond : 
>= 8 km
>= 3000ft
5 à 8 km
1000 à 3000 ft
1500m à 5 km
500 à 1000 ft
800 à 1500m
200 à 500 ft
< 800m
< 200 ft
Symboles :   Orages  Brouillard  Fortes neiges  Fortes précipitations  Vent > 20 kt
SIGMETs :   Divers  Orages  Givrage  Turbulence  Onde Orograph.  Cendres Volcan.






- Altitude de l'aérodrome : 33 ft
- Code IATA : MHZ


EGUN - RAF Mildenhall

DERNIER METAR :
  • 250156Z AUTO 00000KT 9999 CLR 08/08 A3051 RMK AO2 SLP335 T00840084 $

METARs EXPIRÉS :
  • 250056Z AUTO 00000KT 9999 CLR 09/09 A3051 RMK AO2 SLP335 T00940094 .
  • 242356Z AUTO 19003KT 9999 CLR 09/09 A3050 RMK AO2 SLP331 T00920092 10193 20092 402040092 52008 $

TAF AMD TAF EGUN
Valide du 24 à 20h jusqu'au 25 à 18h UTC


242002Z 2420/2518 28009KT 9999 FEW040 QNH3039INS TX17/2420Z TN08/2504Z LAST NO AMDS AFT 2418 NEXT 2518



MET'MAP, la Météo Aéronautique d'un coup d'oeil ! - Copyright ORBIFLY Décembre 2007 - Disclaimer

ORBIFLY MET'MAP TEAM :

Programmation & Développement : Alexandra Zaïnal
Sur une idée originale de : Baudouin d'Aumeries
Assistance à la programmation : Marc-Olivier Méhu
Soutien technique & logistique : Manuel Goepfert

Contact : metmap@orbifly.com




SOURCES & CREDITS :

   NOAA